TimeCDT,TemperatureF,Dew PointF,Humidity,Sea Level PressureIn,VisibilityMPH,Wind Direction,Wind SpeedMPH,Gust SpeedMPH,PrecipitationIn,Events,Conditions,WindDirDegrees,DateUTC
12:15 AM,39.7,37.4,91,30.21,7.0,Calm,Calm,-,N/A,,Clear,0,2013-09-13 05:15:00
12:35 AM,36.5,34.7,93,30.21,10.0,Calm,Calm,-,N/A,,Clear,0,2013-09-13 05:35:00
12:55 AM,37.4,36.0,95,30.21,10.0,Calm,Calm,-,N/A,,Clear,0,2013-09-13 05:55:00
1:15 AM,35.8,34.2,94,30.21,10.0,Calm,Calm,-,N/A,,Clear,0,2013-09-13 06:15:00
1:35 AM,35.6,34.0,94,30.21,10.0,Calm,Calm,-,N/A,,Clear,0,2013-09-13 06:35:00
1:55 AM,34.7,33.1,94,30.22,5.0,Calm,Calm,-,N/A,,Clear,0,2013-09-13 06:55:00
2:15 AM,35.6,34.2,94,30.22,10.0,Calm,Calm,-,N/A,,Clear,0,2013-09-13 07:15:00
2:35 AM,33.8,32.4,94,30.22,4.0,Calm,Calm,-,N/A,,Clear,0,2013-09-13 07:35:00
2:55 AM,32.9,31.8,96,30.22,10.0,Calm,Calm,-,N/A,,Clear,0,2013-09-13 07:55:00
3:15 AM,33.8,32.4,94,30.22,7.0,Calm,Calm,-,N/A,,Clear,0,2013-09-13 08:15:00
3:35 AM,33.8,32.4,94,30.22,10.0,Calm,Calm,-,N/A,,Clear,0,2013-09-13 08:35:00
3:55 AM,33.3,32.0,95,30.23,7.0,Calm,Calm,-,N/A,,Clear,0,2013-09-13 08:55:00
4:15 AM,34.3,33.1,95,30.23,10.0,Calm,Calm,-,N/A,,Clear,0,2013-09-13 09:15:00
4:35 AM,34.0,32.7,95,30.23,1.0,Calm,Calm,-,N/A,,Mist,0,2013-09-13 09:35:00
4:55 AM,31.5,30.2,95,30.23,1.2,Calm,Calm,-,N/A,,Mist,0,2013-09-13 09:55:00
5:15 AM,32.0,31.1,96,30.23,10.0,Calm,Calm,-,N/A,,Clear,0,2013-09-13 10:15:00
5:35 AM,31.6,30.6,96,30.24,1.0,Calm,Calm,-,N/A,,Mist,0,2013-09-13 10:35:00
5:55 AM,32.0,30.9,96,30.24,1.0,Calm,Calm,-,N/A,,Mist,0,2013-09-13 10:55:00
6:15 AM,30.7,29.8,96,30.24,0.5,Calm,Calm,-,N/A,Fog,Light Freezing Fog,0,2013-09-13 11:15:00
6:35 AM,31.1,30.2,96,30.25,0.2,Calm,Calm,-,N/A,Fog,Light Freezing Fog,0,2013-09-13 11:35:00
6:55 AM,31.3,30.4,96,30.25,0.2,Calm,Calm,-,N/A,Fog,Light Freezing Fog,0,2013-09-13 11:55:00
7:15 AM,31.6,30.9,97,30.26,0.5,Calm,Calm,-,N/A,Fog,Light Freezing Fog,0,2013-09-13 12:15:00
7:35 AM,33.3,32.4,96,30.26,0.2,Calm,Calm,-,N/A,Fog,Fog,0,2013-09-13 12:35:00
7:55 AM,38.1,37.2,97,30.26,3.0,Calm,Calm,-,N/A,,Clear,0,2013-09-13 12:55:00
8:15 AM,41.4,40.5,97,30.26,10.0,Calm,Calm,-,N/A,,Clear,0,2013-09-13 13:15:00
8:35 AM,43.7,42.8,97,30.26,10.0,Calm,Calm,-,N/A,,Clear,0,2013-09-13 13:35:00
8:55 AM,45.5,44.6,97,30.26,10.0,NE,3.5,-,N/A,,Clear,50,2013-09-13 13:55:00
9:15 AM,46.9,45.9,96,30.26,10.0,North,3.5,-,N/A,,Clear,10,2013-09-13 14:15:00
9:35 AM,49.3,43.3,80,30.26,10.0,NE,6.9,-,N/A,,Clear,40,2013-09-13 14:35:00
9:55 AM,50.7,41.9,72,30.27,10.0,NNE,4.6,-,N/A,,Clear,20,2013-09-13 14:55:00
10:15 AM,51.8,40.8,66,30.27,10.0,NNE,8.1,-,N/A,,Clear,20,2013-09-13 15:15:00
10:35 AM,53.6,40.3,61,30.27,10.0,NNE,6.9,-,N/A,,Clear,30,2013-09-13 15:35:00
10:55 AM,54.5,40.3,59,30.26,10.0,NE,5.8,-,N/A,,Clear,50,2013-09-13 15:55:00
11:15 AM,54.5,39.0,56,30.26,10.0,NNW,5.8,-,N/A,,Clear,340,2013-09-13 16:15:00
11:35 AM,55.9,38.3,52,30.26,10.0,North,4.6,-,N/A,,Clear,350,2013-09-13 16:35:00
11:55 AM,57.2,38.3,49,30.26,10.0,North,5.8,-,N/A,,Clear,10,2013-09-13 16:55:00
12:15 PM,57.7,37.2,46,30.25,10.0,NE,6.9,-,N/A,,Clear,40,2013-09-13 17:15:00
12:35 PM,58.3,37.2,45,30.24,10.0,NNW,4.6,-,N/A,,Clear,340,2013-09-13 17:35:00
12:55 PM,59.4,38.5,46,30.24,10.0,Calm,Calm,-,N/A,,Clear,0,2013-09-13 17:55:00
1:15 PM,59.4,36.0,42,30.23,10.0,North,4.6,-,N/A,,Clear,360,2013-09-13 18:15:00
1:35 PM,60.1,37.2,43,30.22,10.0,NNW,3.5,-,N/A,,Clear,330,2013-09-13 18:35:00
1:55 PM,59.9,36.9,42,30.21,10.0,Calm,Calm,-,N/A,,Clear,0,2013-09-13 18:55:00
2:15 PM,61.2,38.1,42,30.21,10.0,Calm,Calm,-,N/A,,Clear,0,2013-09-13 19:15:00
2:35 PM,61.7,39.9,45,30.20,10.0,NE,4.6,-,N/A,,Clear,50,2013-09-13 19:35:00
2:55 PM,60.1,39.9,47,30.19,10.0,Calm,Calm,-,N/A,,Clear,0,2013-09-13 19:55:00
3:15 PM,62.2,40.6,45,30.19,10.0,North,3.5,-,N/A,,Clear,10,2013-09-13 20:15:00
3:35 PM,60.4,40.3,47,30.19,10.0,NW,4.6,-,N/A,,Scattered Clouds,320,2013-09-13 20:35:00
3:55 PM,59.5,41.7,52,30.18,10.0,Calm,Calm,-,N/A,,Scattered Clouds,0,2013-09-13 20:55:00
4:15 PM,60.4,41.0,49,30.18,10.0,West,3.5,-,N/A,,Scattered Clouds,280,2013-09-13 21:15:00
4:35 PM,58.6,43.9,58,30.17,10.0,Calm,Calm,-,N/A,,Scattered Clouds,0,2013-09-13 21:35:00
4:55 PM,57.6,45.5,64,30.17,7.0,Calm,Calm,-,N/A,,Overcast,0,2013-09-13 21:55:00
5:15 PM,61.0,42.1,50,30.17,10.0,Calm,Calm,-,N/A,,Scattered Clouds,0,2013-09-13 22:15:00
5:35 PM,61.0,42.6,51,30.17,10.0,Calm,Calm,-,N/A,,Clear,0,2013-09-13 22:35:00
5:55 PM,60.4,42.3,51,30.16,10.0,Calm,Calm,-,N/A,,Clear,0,2013-09-13 22:55:00
6:15 PM,59.7,44.1,56,30.16,10.0,Calm,Calm,-,N/A,,Clear,0,2013-09-13 23:15:00
6:35 PM,57.4,46.4,67,30.16,10.0,Calm,Calm,-,N/A,,Clear,0,2013-09-13 23:35:00
6:55 PM,53.2,46.2,77,30.16,7.0,Calm,Calm,-,N/A,,Clear,0,2013-09-13 23:55:00
7:15 PM,49.5,45.0,84,30.16,10.0,Calm,Calm,-,N/A,,Clear,0,2013-09-14 00:15:00
7:35 PM,47.7,44.6,89,30.16,10.0,Calm,Calm,-,N/A,,Clear,0,2013-09-14 00:35:00
7:55 PM,46.8,44.6,92,30.16,10.0,Calm,Calm,-,N/A,,Clear,0,2013-09-14 00:55:00
8:15 PM,45.0,42.8,92,30.16,10.0,Calm,Calm,-,N/A,,Clear,0,2013-09-14 01:15:00
8:35 PM,44.4,42.6,93,30.15,10.0,Calm,Calm,-,N/A,,Clear,0,2013-09-14 01:35:00
8:55 PM,42.1,40.3,93,30.15,3.0,Calm,Calm,-,N/A,,Clear,0,2013-09-14 01:55:00
9:15 PM,42.4,41.0,95,30.15,10.0,Calm,Calm,-,N/A,,Clear,0,2013-09-14 02:15:00
9:35 PM,40.8,39.2,94,30.15,10.0,Calm,Calm,-,N/A,,Clear,0,2013-09-14 02:35:00
9:55 PM,40.3,38.7,94,30.14,10.0,Calm,Calm,-,N/A,,Clear,0,2013-09-14 02:55:00
10:15 PM,39.6,38.1,95,30.15,10.0,Calm,Calm,-,N/A,,Clear,0,2013-09-14 03:15:00
10:35 PM,39.0,37.6,95,30.14,10.0,Calm,Calm,-,N/A,,Clear,0,2013-09-14 03:35:00
10:55 PM,38.3,36.7,94,30.14,10.0,Calm,Calm,-,N/A,,Clear,0,2013-09-14 03:55:00
11:15 PM,37.8,36.3,95,30.13,10.0,Calm,Calm,-,N/A,,Clear,0,2013-09-14 04:15:00
11:35 PM,37.4,35.8,94,30.13,10.0,Calm,Calm,-,N/A,,Clear,0,2013-09-14 04:35:00
11:55 PM,37.0,35.6,95,30.12,10.0,Calm,Calm,-,N/A,,Clear,0,2013-09-14 04:55:00